sensor_id;sensor_type;location;lat;lon;timestamp;temperature;humidity
9383;DHT22;4731;49.708;10.816;2023-07-02T00:01:48;17.10;99.90
9383;DHT22;4731;49.708;10.816;2023-07-02T00:04:15;17.10;99.90
9383;DHT22;4731;49.708;10.816;2023-07-02T00:06:45;19.40;99.90
9383;DHT22;4731;49.708;10.816;2023-07-02T00:09:13;17.20;99.90
9383;DHT22;4731;49.708;10.816;2023-07-02T00:11:42;17.00;99.90
9383;DHT22;4731;49.708;10.816;2023-07-02T00:14:10;17.00;99.90
9383;DHT22;4731;49.708;10.816;2023-07-02T00:16:38;17.60;99.90
9383;DHT22;4731;49.708;10.816;2023-07-02T00:19:05;16.90;99.90
9383;DHT22;4731;49.708;10.816;2023-07-02T00:21:32;17.30;99.90
9383;DHT22;4731;49.708;10.816;2023-07-02T00:24:00;16.90;99.90
9383;DHT22;4731;49.708;10.816;2023-07-02T00:26:28;17.30;99.90
9383;DHT22;4731;49.708;10.816;2023-07-02T00:28:55;16.80;99.90
9383;DHT22;4731;49.708;10.816;2023-07-02T00:31:23;16.80;99.90
9383;DHT22;4731;49.708;10.816;2023-07-02T00:33:50;18.60;99.90
9383;DHT22;4731;49.708;10.816;2023-07-02T00:36:17;16.60;99.90
9383;DHT22;4731;49.708;10.816;2023-07-02T00:38:45;16.60;99.90
9383;DHT22;4731;49.708;10.816;2023-07-02T00:41:12;19.00;99.90
9383;DHT22;4731;49.708;10.816;2023-07-02T00:43:40;16.50;99.90
9383;DHT22;4731;49.708;10.816;2023-07-02T00:46:12;16.50;99.90
9383;DHT22;4731;49.708;10.816;2023-07-02T00:48:43;16.40;99.90
9383;DHT22;4731;49.708;10.816;2023-07-02T00:51:11;17.20;99.90
9383;DHT22;4731;49.708;10.816;2023-07-02T00:53:39;16.30;99.90
9383;DHT22;4731;49.708;10.816;2023-07-02T00:56:06;16.30;99.90
9383;DHT22;4731;49.708;10.816;2023-07-02T00:58:34;16.20;99.90
9383;DHT22;4731;49.708;10.816;2023-07-02T01:01:04;17.10;99.90
9383;DHT22;4731;49.708;10.816;2023-07-02T01:03:31;16.30;99.90
9383;DHT22;4731;49.708;10.816;2023-07-02T01:05:58;16.30;99.90
9383;DHT22;4731;49.708;10.816;2023-07-02T01:08:29;16.40;99.90
9383;DHT22;4731;49.708;10.816;2023-07-02T01:10:55;17.40;99.90
9383;DHT22;4731;49.708;10.816;2023-07-02T01:13:24;16.50;99.90
9383;DHT22;4731;49.708;10.816;2023-07-02T01:15:52;17.60;99.90
9383;DHT22;4731;49.708;10.816;2023-07-02T01:18:20;16.50;99.90
9383;DHT22;4731;49.708;10.816;2023-07-02T01:20:49;16.50;99.90
9383;DHT22;4731;49.708;10.816;2023-07-02T01:23:16;16.50;99.90
9383;DHT22;4731;49.708;10.816;2023-07-02T01:25:43;16.60;99.90
9383;DHT22;4731;49.708;10.816;2023-07-02T01:28:11;16.60;99.90
9383;DHT22;4731;49.708;10.816;2023-07-02T01:30:39;16.60;99.90
9383;DHT22;4731;49.708;10.816;2023-07-02T01:33:06;16.60;99.90
9383;DHT22;4731;49.708;10.816;2023-07-02T01:35:32;16.50;99.90
9383;DHT22;4731;49.708;10.816;2023-07-02T01:38:00;16.60;99.90
9383;DHT22;4731;49.708;10.816;2023-07-02T01:40:27;18.20;99.90
9383;DHT22;4731;49.708;10.816;2023-07-02T01:42:54;16.50;99.90
9383;DHT22;4731;49.708;10.816;2023-07-02T01:45:20;16.50;99.90
9383;DHT22;4731;49.708;10.816;2023-07-02T01:47:47;16.40;99.90
9383;DHT22;4731;49.708;10.816;2023-07-02T01:50:14;16.40;99.90
9383;DHT22;4731;49.708;10.816;2023-07-02T01:52:40;16.40;99.90
9383;DHT22;4731;49.708;10.816;2023-07-02T01:55:09;16.30;99.90
9383;DHT22;4731;49.708;10.816;2023-07-02T01:57:36;16.30;99.90
9383;DHT22;4731;49.708;10.816;2023-07-02T02:00:03;16.30;99.90
9383;DHT22;4731;49.708;10.816;2023-07-02T02:02:30;16.20;99.90
9383;DHT22;4731;49.708;10.816;2023-07-02T02:04:56;16.20;99.90
9383;DHT22;4731;49.708;10.816;2023-07-02T02:07:23;16.20;99.90
9383;DHT22;4731;49.708;10.816;2023-07-02T02:09:51;16.10;99.90
9383;DHT22;4731;49.708;10.816;2023-07-02T02:12:19;18.10;99.90
9383;DHT22;4731;49.708;10.816;2023-07-02T02:14:46;16.10;99.90
9383;DHT22;4731;49.708;10.816;2023-07-02T02:17:12;16.10;99.90
9383;DHT22;4731;49.708;10.816;2023-07-02T02:19:39;16.10;99.90
9383;DHT22;4731;49.708;10.816;2023-07-02T02:22:06;16.00;99.90
9383;DHT22;4731;49.708;10.816;2023-07-02T02:24:33;16.00;99.90
9383;DHT22;4731;49.708;10.816;2023-07-02T02:26:59;16.00;99.90
9383;DHT22;4731;49.708;10.816;2023-07-02T02:29:27;15.90;99.90
9383;DHT22;4731;49.708;10.816;2023-07-02T02:31:54;16.90;99.90
9383;DHT22;4731;49.708;10.816;2023-07-02T02:34:21;15.90;99.90
9383;DHT22;4731;49.708;10.816;2023-07-02T02:36:47;15.90;99.90
9383;DHT22;4731;49.708;10.816;2023-07-02T02:39:14;15.90;99.90
9383;DHT22;4731;49.708;10.816;2023-07-02T02:41:41;15.90;99.90
9383;DHT22;4731;49.708;10.816;2023-07-02T02:44:08;15.80;99.90
9383;DHT22;4731;49.708;10.816;2023-07-02T02:46:36;15.80;99.90
9383;DHT22;4731;49.708;10.816;2023-07-02T02:49:02;15.70;99.90
9383;DHT22;4731;49.708;10.816;2023-07-02T02:51:29;15.60;99.90
9383;DHT22;4731;49.708;10.816;2023-07-02T02:53:56;15.50;99.90
9383;DHT22;4731;49.708;10.816;2023-07-02T02:56:22;15.50;99.90
9383;DHT22;4731;49.708;10.816;2023-07-02T02:58:49;15.40;99.90
9383;DHT22;4731;49.708;10.816;2023-07-02T03:01:16;15.40;99.90
9383;DHT22;4731;49.708;10.816;2023-07-02T03:03:44;15.40;99.90
9383;DHT22;4731;49.708;10.816;2023-07-02T03:06:12;15.30;99.90
9383;DHT22;4731;49.708;10.816;2023-07-02T03:08:40;15.30;99.90
9383;DHT22;4731;49.708;10.816;2023-07-02T03:11:06;15.30;99.90
9383;DHT22;4731;49.708;10.816;2023-07-02T03:13:33;16.80;99.90
9383;DHT22;4731;49.708;10.816;2023-07-02T03:16:00;15.20;99.90
9383;DHT22;4731;49.708;10.816;2023-07-02T03:18:27;15.20;99.90
9383;DHT22;4731;49.708;10.816;2023-07-02T03:20:55;17.30;99.90
9383;DHT22;4731;49.708;10.816;2023-07-02T03:23:21;15.10;99.90
9383;DHT22;4731;49.708;10.816;2023-07-02T03:25:48;15.10;99.90
9383;DHT22;4731;49.708;10.816;2023-07-02T03:28:15;15.00;99.90
9383;DHT22;4731;49.708;10.816;2023-07-02T03:30:42;15.00;99.90
9383;DHT22;4731;49.708;10.816;2023-07-02T03:33:09;15.00;99.90
9383;DHT22;4731;49.708;10.816;2023-07-02T03:35:36;15.00;99.90
9383;DHT22;4731;49.708;10.816;2023-07-02T03:38:04;14.90;99.90
9383;DHT22;4731;49.708;10.816;2023-07-02T03:40:31;15.00;99.90
9383;DHT22;4731;49.708;10.816;2023-07-02T03:42:58;14.90;99.90
9383;DHT22;4731;49.708;10.816;2023-07-02T03:45:24;15.00;99.90
9383;DHT22;4731;49.708;10.816;2023-07-02T03:47:52;16.40;99.90
9383;DHT22;4731;49.708;10.816;2023-07-02T03:50:19;15.10;99.90
9383;DHT22;4731;49.708;10.816;2023-07-02T03:52:46;15.20;99.90
9383;DHT22;4731;49.708;10.816;2023-07-02T03:55:14;15.10;99.90
9383;DHT22;4731;49.708;10.816;2023-07-02T03:57:41;17.80;99.90
9383;DHT22;4731;49.708;10.816;2023-07-02T04:00:08;15.20;99.90
9383;DHT22;4731;49.708;10.816;2023-07-02T04:02:37;15.30;99.90
9383;DHT22;4731;49.708;10.816;2023-07-02T04:05:04;15.30;99.90
9383;DHT22;4731;49.708;10.816;2023-07-02T04:07:31;15.40;99.90
9383;DHT22;4731;49.708;10.816;2023-07-02T04:09:58;15.50;99.90
9383;DHT22;4731;49.708;10.816;2023-07-02T04:12:26;15.50;99.90
9383;DHT22;4731;49.708;10.816;2023-07-02T04:14:53;15.50;99.90
9383;DHT22;4731;49.708;10.816;2023-07-02T04:17:19;15.60;99.90
9383;DHT22;4731;49.708;10.816;2023-07-02T04:19:46;15.70;99.90
9383;DHT22;4731;49.708;10.816;2023-07-02T04:22:13;16.50;99.90
9383;DHT22;4731;49.708;10.816;2023-07-02T04:24:39;15.80;99.90
9383;DHT22;4731;49.708;10.816;2023-07-02T04:27:06;15.70;99.90
9383;DHT22;4731;49.708;10.816;2023-07-02T04:29:34;15.80;99.90
9383;DHT22;4731;49.708;10.816;2023-07-02T04:32:01;15.80;99.90
9383;DHT22;4731;49.708;10.816;2023-07-02T04:34:28;15.80;99.90
9383;DHT22;4731;49.708;10.816;2023-07-02T04:36:54;15.80;99.90
9383;DHT22;4731;49.708;10.816;2023-07-02T04:39:21;15.70;99.90
9383;DHT22;4731;49.708;10.816;2023-07-02T04:41:48;15.70;99.90
9383;DHT22;4731;49.708;10.816;2023-07-02T04:44:18;15.70;99.90
9383;DHT22;4731;49.708;10.816;2023-07-02T04:46:47;15.90;99.90
9383;DHT22;4731;49.708;10.816;2023-07-02T04:49:14;15.80;99.90
9383;DHT22;4731;49.708;10.816;2023-07-02T04:51:41;16.00;99.90
9383;DHT22;4731;49.708;10.816;2023-07-02T04:54:08;18.00;99.90
9383;DHT22;4731;49.708;10.816;2023-07-02T04:56:34;16.30;99.90
9383;DHT22;4731;49.708;10.816;2023-07-02T04:59:01;16.40;99.90
9383;DHT22;4731;49.708;10.816;2023-07-02T05:01:28;16.60;99.90
9383;DHT22;4731;49.708;10.816;2023-07-02T05:03:56;17.40;99.90
9383;DHT22;4731;49.708;10.816;2023-07-02T05:06:23;16.80;99.90
9383;DHT22;4731;49.708;10.816;2023-07-02T05:08:50;16.90;99.90
9383;DHT22;4731;49.708;10.816;2023-07-02T05:11:18;16.90;99.90
9383;DHT22;4731;49.708;10.816;2023-07-02T05:13:45;17.00;99.90
9383;DHT22;4731;49.708;10.816;2023-07-02T05:16:11;17.00;99.90
9383;DHT22;4731;49.708;10.816;2023-07-02T05:18:38;17.20;99.90
9383;DHT22;4731;49.708;10.816;2023-07-02T05:21:07;17.10;99.90
9383;DHT22;4731;49.708;10.816;2023-07-02T05:23:33;17.40;99.90
9383;DHT22;4731;49.708;10.816;2023-07-02T05:26:01;17.50;99.90
9383;DHT22;4731;49.708;10.816;2023-07-02T05:28:27;19.00;99.90
9383;DHT22;4731;49.708;10.816;2023-07-02T05:30:54;17.70;99.90
9383;DHT22;4731;49.708;10.816;2023-07-02T05:33:21;17.70;99.90
9383;DHT22;4731;49.708;10.816;2023-07-02T05:35:48;17.80;99.90
9383;DHT22;4731;49.708;10.816;2023-07-02T05:38:17;17.60;99.90
9383;DHT22;4731;49.708;10.816;2023-07-02T05:40:45;17.70;99.90
9383;DHT22;4731;49.708;10.816;2023-07-02T05:43:11;17.80;99.90
9383;DHT22;4731;49.708;10.816;2023-07-02T05:45:38;17.70;99.90
9383;DHT22;4731;49.708;10.816;2023-07-02T05:48:05;17.70;99.90
9383;DHT22;4731;49.708;10.816;2023-07-02T05:50:32;17.80;99.90
9383;DHT22;4731;49.708;10.816;2023-07-02T05:52:59;17.80;99.90
9383;DHT22;4731;49.708;10.816;2023-07-02T05:55:27;17.40;99.90
9383;DHT22;4731;49.708;10.816;2023-07-02T05:57:54;17.50;99.90
9383;DHT22;4731;49.708;10.816;2023-07-02T06:00:22;17.60;99.90
9383;DHT22;4731;49.708;10.816;2023-07-02T06:02:49;17.90;99.90
9383;DHT22;4731;49.708;10.816;2023-07-02T06:05:16;17.90;99.90
9383;DHT22;4731;49.708;10.816;2023-07-02T06:07:42;17.80;99.90
9383;DHT22;4731;49.708;10.816;2023-07-02T06:10:10;18.30;99.90
9383;DHT22;4731;49.708;10.816;2023-07-02T06:12:38;17.40;99.90
9383;DHT22;4731;49.708;10.816;2023-07-02T06:15:05;19.20;99.90
9383;DHT22;4731;49.708;10.816;2023-07-02T06:17:32;17.20;99.90
9383;DHT22;4731;49.708;10.816;2023-07-02T06:19:59;17.20;99.90
9383;DHT22;4731;49.708;10.816;2023-07-02T06:22:26;17.20;99.90
9383;DHT22;4731;49.708;10.816;2023-07-02T06:24:54;17.40;99.90
9383;DHT22;4731;49.708;10.816;2023-07-02T06:27:22;17.50;99.90
9383;DHT22;4731;49.708;10.816;2023-07-02T06:29:50;17.80;99.90
9383;DHT22;4731;49.708;10.816;2023-07-02T06:32:17;18.10;99.90
9383;DHT22;4731;49.708;10.816;2023-07-02T06:34:44;19.60;99.90
9383;DHT22;4731;49.708;10.816;2023-07-02T06:37:11;19.00;99.90
9383;DHT22;4731;49.708;10.816;2023-07-02T06:39:38;19.50;99.90
9383;DHT22;4731;49.708;10.816;2023-07-02T06:42:04;19.10;99.90
9383;DHT22;4731;49.708;10.816;2023-07-02T06:44:31;19.00;99.90
9383;DHT22;4731;49.708;10.816;2023-07-02T06:46:59;21.40;99.90
9383;DHT22;4731;49.708;10.816;2023-07-02T06:49:26;20.20;99.90
9383;DHT22;4731;49.708;10.816;2023-07-02T06:51:52;19.00;99.90
9383;DHT22;4731;49.708;10.816;2023-07-02T06:54:19;19.20;99.90
9383;DHT22;4731;49.708;10.816;2023-07-02T06:56:46;19.10;99.90
9383;DHT22;4731;49.708;10.816;2023-07-02T06:59:18;19.10;99.90
9383;DHT22;4731;49.708;10.816;2023-07-02T07:01:45;19.40;99.90
9383;DHT22;4731;49.708;10.816;2023-07-02T07:04:13;19.40;99.90
9383;DHT22;4731;49.708;10.816;2023-07-02T07:06:40;19.50;99.90
9383;DHT22;4731;49.708;10.816;2023-07-02T07:09:06;19.20;99.90
9383;DHT22;4731;49.708;10.816;2023-07-02T07:11:33;19.20;99.90
9383;DHT22;4731;49.708;10.816;2023-07-02T07:14:00;19.60;99.90
9383;DHT22;4731;49.708;10.816;2023-07-02T07:16:26;19.40;99.90
9383;DHT22;4731;49.708;10.816;2023-07-02T07:18:53;21.30;99.90
9383;DHT22;4731;49.708;10.816;2023-07-02T07:21:21;19.80;99.90
9383;DHT22;4731;49.708;10.816;2023-07-02T07:23:48;19.60;99.90
9383;DHT22;4731;49.708;10.816;2023-07-02T07:26:15;19.60;99.90
9383;DHT22;4731;49.708;10.816;2023-07-02T07:28:42;21.50;99.90
9383;DHT22;4731;49.708;10.816;2023-07-02T07:31:08;19.10;99.90
9383;DHT22;4731;49.708;10.816;2023-07-02T07:33:35;19.00;99.90
9383;DHT22;4731;49.708;10.816;2023-07-02T07:36:02;20.00;99.90
9383;DHT22;4731;49.708;10.816;2023-07-02T07:38:30;18.70;99.90
9383;DHT22;4731;49.708;10.816;2023-07-02T07:40:57;18.80;99.90
9383;DHT22;4731;49.708;10.816;2023-07-02T07:43:24;19.10;99.90
9383;DHT22;4731;49.708;10.816;2023-07-02T07:45:50;18.80;99.90
9383;DHT22;4731;49.708;10.816;2023-07-02T07:48:17;19.30;99.90
9383;DHT22;4731;49.708;10.816;2023-07-02T07:50:44;19.40;99.90
9383;DHT22;4731;49.708;10.816;2023-07-02T07:53:10;19.40;99.90
9383;DHT22;4731;49.708;10.816;2023-07-02T07:55:38;19.60;99.90
9383;DHT22;4731;49.708;10.816;2023-07-02T07:58:05;21.30;99.90
9383;DHT22;4731;49.708;10.816;2023-07-02T08:00:32;19.70;99.90
9383;DHT22;4731;49.708;10.816;2023-07-02T08:02:58;19.60;99.90
9383;DHT22;4731;49.708;10.816;2023-07-02T08:05:26;20.00;99.90
9383;DHT22;4731;49.708;10.816;2023-07-02T08:07:53;20.50;99.90
9383;DHT22;4731;49.708;10.816;2023-07-02T08:10:19;21.70;99.90
9383;DHT22;4731;49.708;10.816;2023-07-02T08:12:48;21.30;99.90
9383;DHT22;4731;49.708;10.816;2023-07-02T08:15:14;21.30;99.90
9383;DHT22;4731;49.708;10.816;2023-07-02T08:17:41;21.00;99.90
9383;DHT22;4731;49.708;10.816;2023-07-02T08:20:09;20.70;99.90
9383;DHT22;4731;49.708;10.816;2023-07-02T08:22:37;17.90;99.90
9383;DHT22;4731;49.708;10.816;2023-07-02T08:25:04;20.50;99.90
9383;DHT22;4731;49.708;10.816;2023-07-02T08:27:31;20.80;99.90
9383;DHT22;4731;49.708;10.816;2023-07-02T08:29:59;21.10;99.90
9383;DHT22;4731;49.708;10.816;2023-07-02T08:32:25;21.50;99.90
9383;DHT22;4731;49.708;10.816;2023-07-02T08:34:52;23.80;99.90
9383;DHT22;4731;49.708;10.816;2023-07-02T08:37:20;22.20;99.90
9383;DHT22;4731;49.708;10.816;2023-07-02T08:39:48;22.70;99.90
9383;DHT22;4731;49.708;10.816;2023-07-02T08:42:15;22.80;99.90
9383;DHT22;4731;49.708;10.816;2023-07-02T08:44:45;22.70;99.90
9383;DHT22;4731;49.708;10.816;2023-07-02T08:47:13;22.70;99.90
9383;DHT22;4731;49.708;10.816;2023-07-02T08:49:41;22.90;99.90
9383;DHT22;4731;49.708;10.816;2023-07-02T08:52:08;22.50;99.90
9383;DHT22;4731;49.708;10.816;2023-07-02T08:54:35;22.50;99.90
9383;DHT22;4731;49.708;10.816;2023-07-02T08:57:03;22.70;99.90
9383;DHT22;4731;49.708;10.816;2023-07-02T08:59:30;22.50;99.90
9383;DHT22;4731;49.708;10.816;2023-07-02T09:01:57;22.80;99.90
9383;DHT22;4731;49.708;10.816;2023-07-02T09:04:26;22.90;99.90
9383;DHT22;4731;49.708;10.816;2023-07-02T09:07:03;23.30;99.90
9383;DHT22;4731;49.708;10.816;2023-07-02T09:09:30;23.20;99.90
9383;DHT22;4731;49.708;10.816;2023-07-02T09:11:57;22.80;99.90
9383;DHT22;4731;49.708;10.816;2023-07-02T09:14:25;23.20;99.90
9383;DHT22;4731;49.708;10.816;2023-07-02T09:17:02;23.10;99.90
9383;DHT22;4731;49.708;10.816;2023-07-02T09:19:31;23.10;99.90
9383;DHT22;4731;49.708;10.816;2023-07-02T09:21:58;23.00;99.90
9383;DHT22;4731;49.708;10.816;2023-07-02T09:24:26;23.50;99.90
9383;DHT22;4731;49.708;10.816;2023-07-02T09:26:55;24.30;99.90
9383;DHT22;4731;49.708;10.816;2023-07-02T09:29:23;24.70;99.90
9383;DHT22;4731;49.708;10.816;2023-07-02T09:31:50;24.50;99.90
9383;DHT22;4731;49.708;10.816;2023-07-02T09:34:17;24.40;99.90
9383;DHT22;4731;49.708;10.816;2023-07-02T09:36:45;25.60;99.90
9383;DHT22;4731;49.708;10.816;2023-07-02T09:39:13;24.00;99.90
9383;DHT22;4731;49.708;10.816;2023-07-02T09:41:41;23.60;99.90
9383;DHT22;4731;49.708;10.816;2023-07-02T09:44:08;23.60;99.90
9383;DHT22;4731;49.708;10.816;2023-07-02T09:46:37;23.30;99.90
9383;DHT22;4731;49.708;10.816;2023-07-02T09:49:09;23.20;99.90
9383;DHT22;4731;49.708;10.816;2023-07-02T09:51:38;23.30;99.90
9383;DHT22;4731;49.708;10.816;2023-07-02T09:54:07;23.00;99.90
9383;DHT22;4731;49.708;10.816;2023-07-02T09:56:33;22.80;99.90
9383;DHT22;4731;49.708;10.816;2023-07-02T09:59:00;23.40;99.90
9383;DHT22;4731;49.708;10.816;2023-07-02T10:01:27;22.00;99.90
9383;DHT22;4731;49.708;10.816;2023-07-02T10:03:54;21.90;99.90
9383;DHT22;4731;49.708;10.816;2023-07-02T10:06:20;23.20;99.90
9383;DHT22;4731;49.708;10.816;2023-07-02T10:08:53;21.80;99.90
9383;DHT22;4731;49.708;10.816;2023-07-02T10:11:33;21.80;99.90
9383;DHT22;4731;49.708;10.816;2023-07-02T10:14:00;21.90;99.90
9383;DHT22;4731;49.708;10.816;2023-07-02T10:16:27;22.40;99.90
9383;DHT22;4731;49.708;10.816;2023-07-02T10:18:53;22.90;99.90
9383;DHT22;4731;49.708;10.816;2023-07-02T10:21:20;23.30;99.90
9383;DHT22;4731;49.708;10.816;2023-07-02T10:23:47;24.30;99.90
9383;DHT22;4731;49.708;10.816;2023-07-02T10:26:14;24.90;99.90
9383;DHT22;4731;49.708;10.816;2023-07-02T10:28:55;24.70;99.90
9383;DHT22;4731;49.708;10.816;2023-07-02T10:31:22;22.20;99.90
9383;DHT22;4731;49.708;10.816;2023-07-02T10:33:48;22.60;99.90
9383;DHT22;4731;49.708;10.816;2023-07-02T10:36:19;22.80;99.90
9383;DHT22;4731;49.708;10.816;2023-07-02T10:38:47;23.00;99.90
9383;DHT22;4731;49.708;10.816;2023-07-02T10:41:23;23.80;99.90
9383;DHT22;4731;49.708;10.816;2023-07-02T10:43:52;24.40;99.90
9383;DHT22;4731;49.708;10.816;2023-07-02T10:46:19;25.60;99.90
9383;DHT22;4731;49.708;10.816;2023-07-02T10:48:53;23.80;99.90
9383;DHT22;4731;49.708;10.816;2023-07-02T10:51:20;23.20;99.90
9383;DHT22;4731;49.708;10.816;2023-07-02T10:53:56;23.30;99.90
9383;DHT22;4731;49.708;10.816;2023-07-02T10:56:24;23.30;99.90
9383;DHT22;4731;49.708;10.816;2023-07-02T10:58:52;23.20;99.90
9383;DHT22;4731;49.708;10.816;2023-07-02T11:01:23;23.40;99.90
9383;DHT22;4731;49.708;10.816;2023-07-02T11:03:59;23.70;99.90
9383;DHT22;4731;49.708;10.816;2023-07-02T11:06:26;24.20;99.90
9383;DHT22;4731;49.708;10.816;2023-07-02T11:08:53;25.20;99.90
9383;DHT22;4731;49.708;10.816;2023-07-02T11:11:22;24.60;99.90
9383;DHT22;4731;49.708;10.816;2023-07-02T11:13:50;24.40;99.90
9383;DHT22;4731;49.708;10.816;2023-07-02T11:16:22;24.20;99.90
9383;DHT22;4731;49.708;10.816;2023-07-02T11:18:52;24.10;99.90
9383;DHT22;4731;49.708;10.816;2023-07-02T11:21:19;23.90;99.90
9383;DHT22;4731;49.708;10.816;2023-07-02T11:23:45;24.00;99.90
9383;DHT22;4731;49.708;10.816;2023-07-02T11:26:12;24.60;99.90
9383;DHT22;4731;49.708;10.816;2023-07-02T11:28:49;25.00;99.90
9383;DHT22;4731;49.708;10.816;2023-07-02T11:31:25;25.40;99.90
9383;DHT22;4731;49.708;10.816;2023-07-02T11:33:53;24.80;99.90
9383;DHT22;4731;49.708;10.816;2023-07-02T11:36:20;24.80;99.90
9383;DHT22;4731;49.708;10.816;2023-07-02T11:38:49;25.20;99.90
9383;DHT22;4731;49.708;10.816;2023-07-02T11:41:15;25.40;99.90
9383;DHT22;4731;49.708;10.816;2023-07-02T11:43:42;26.10;99.90
9383;DHT22;4731;49.708;10.816;2023-07-02T11:46:09;26.10;99.90
9383;DHT22;4731;49.708;10.816;2023-07-02T11:48:37;25.70;99.90
9383;DHT22;4731;49.708;10.816;2023-07-02T11:51:03;25.50;99.90
9383;DHT22;4731;49.708;10.816;2023-07-02T11:53:30;25.10;99.90
9383;DHT22;4731;49.708;10.816;2023-07-02T11:55:57;25.10;99.90
9383;DHT22;4731;49.708;10.816;2023-07-02T11:58:23;24.60;99.90
9383;DHT22;4731;49.708;10.816;2023-07-02T12:00:50;24.20;99.90
9383;DHT22;4731;49.708;10.816;2023-07-02T12:03:17;23.90;99.90
9383;DHT22;4731;49.708;10.816;2023-07-02T12:05:45;23.90;99.90
9383;DHT22;4731;49.708;10.816;2023-07-02T12:08:12;24.20;99.90
9383;DHT22;4731;49.708;10.816;2023-07-02T12:10:38;24.50;99.90
9383;DHT22;4731;49.708;10.816;2023-07-02T12:13:06;24.90;99.90
9383;DHT22;4731;49.708;10.816;2023-07-02T12:15:33;25.20;99.90
9383;DHT22;4731;49.708;10.816;2023-07-02T12:17:59;25.30;99.90
9383;DHT22;4731;49.708;10.816;2023-07-02T12:20:26;25.30;99.90
9383;DHT22;4731;49.708;10.816;2023-07-02T12:22:54;24.80;99.90
9383;DHT22;4731;49.708;10.816;2023-07-02T12:25:21;24.40;99.90
9383;DHT22;4731;49.708;10.816;2023-07-02T12:27:47;24.20;99.90
9383;DHT22;4731;49.708;10.816;2023-07-02T12:30:14;23.90;99.90
9383;DHT22;4731;49.708;10.816;2023-07-02T12:32:42;23.80;99.90
9383;DHT22;4731;49.708;10.816;2023-07-02T12:35:09;24.00;99.90
9383;DHT22;4731;49.708;10.816;2023-07-02T12:37:42;25.40;99.90
9383;DHT22;4731;49.708;10.816;2023-07-02T12:40:13;24.20;99.90
9383;DHT22;4731;49.708;10.816;2023-07-02T12:42:41;24.40;99.90
9383;DHT22;4731;49.708;10.816;2023-07-02T12:45:09;25.00;99.90
9383;DHT22;4731;49.708;10.816;2023-07-02T12:47:36;25.30;99.90
9383;DHT22;4731;49.708;10.816;2023-07-02T12:50:04;25.30;99.90
9383;DHT22;4731;49.708;10.816;2023-07-02T12:52:31;25.00;99.90
9383;DHT22;4731;49.708;10.816;2023-07-02T12:54:58;25.00;99.90
9383;DHT22;4731;49.708;10.816;2023-07-02T12:57:26;25.50;99.90
9383;DHT22;4731;49.708;10.816;2023-07-02T12:59:52;26.10;99.90
9383;DHT22;4731;49.708;10.816;2023-07-02T13:02:19;25.60;99.90
9383;DHT22;4731;49.708;10.816;2023-07-02T13:04:46;25.30;99.90
9383;DHT22;4731;49.708;10.816;2023-07-02T13:07:13;25.60;99.90
9383;DHT22;4731;49.708;10.816;2023-07-02T13:09:40;26.00;99.90
9383;DHT22;4731;49.708;10.816;2023-07-02T13:12:07;26.00;99.90
9383;DHT22;4731;49.708;10.816;2023-07-02T13:14:36;26.00;99.90
9383;DHT22;4731;49.708;10.816;2023-07-02T13:17:03;26.40;99.90
9383;DHT22;4731;49.708;10.816;2023-07-02T13:19:30;26.30;99.90
9383;DHT22;4731;49.708;10.816;2023-07-02T13:21:57;26.00;99.90
9383;DHT22;4731;49.708;10.816;2023-07-02T13:24:24;25.80;99.90
9383;DHT22;4731;49.708;10.816;2023-07-02T13:26:51;25.70;99.90
9383;DHT22;4731;49.708;10.816;2023-07-02T13:29:17;25.30;99.90
9383;DHT22;4731;49.708;10.816;2023-07-02T13:31:45;25.00;99.90
9383;DHT22;4731;49.708;10.816;2023-07-02T13:34:12;25.00;99.90
9383;DHT22;4731;49.708;10.816;2023-07-02T13:36:39;24.80;99.90
9383;DHT22;4731;49.708;10.816;2023-07-02T13:39:06;25.30;99.90
9383;DHT22;4731;49.708;10.816;2023-07-02T13:41:32;25.40;99.90
9383;DHT22;4731;49.708;10.816;2023-07-02T13:43:59;25.40;99.90
9383;DHT22;4731;49.708;10.816;2023-07-02T13:46:26;25.30;99.90
9383;DHT22;4731;49.708;10.816;2023-07-02T13:48:54;25.10;99.90
9383;DHT22;4731;49.708;10.816;2023-07-02T13:51:20;24.80;99.90
9383;DHT22;4731;49.708;10.816;2023-07-02T13:53:47;24.80;99.90
9383;DHT22;4731;49.708;10.816;2023-07-02T13:56:14;25.10;99.90
9383;DHT22;4731;49.708;10.816;2023-07-02T13:59:01;25.30;99.90
9383;DHT22;4731;49.708;10.816;2023-07-02T14:01:28;25.30;99.90
9383;DHT22;4731;49.708;10.816;2023-07-02T14:03:58;25.40;99.90
9383;DHT22;4731;49.708;10.816;2023-07-02T14:06:25;24.80;99.90
9383;DHT22;4731;49.708;10.816;2023-07-02T14:08:52;24.50;99.90
9383;DHT22;4731;49.708;10.816;2023-07-02T14:11:20;24.50;99.90
9383;DHT22;4731;49.708;10.816;2023-07-02T14:13:48;24.90;99.90
9383;DHT22;4731;49.708;10.816;2023-07-02T14:16:15;25.50;99.90
9383;DHT22;4731;49.708;10.816;2023-07-02T14:18:43;25.90;99.90
9383;DHT22;4731;49.708;10.816;2023-07-02T14:21:09;25.90;99.90
9383;DHT22;4731;49.708;10.816;2023-07-02T14:23:36;25.80;99.90
9383;DHT22;4731;49.708;10.816;2023-07-02T14:26:03;25.50;99.90
9383;DHT22;4731;49.708;10.816;2023-07-02T14:28:29;25.20;99.90
9383;DHT22;4731;49.708;10.816;2023-07-02T14:30:58;25.30;99.90
9383;DHT22;4731;49.708;10.816;2023-07-02T14:33:26;25.00;99.90
9383;DHT22;4731;49.708;10.816;2023-07-02T14:35:54;25.10;99.90
9383;DHT22;4731;49.708;10.816;2023-07-02T14:38:21;25.20;99.90
9383;DHT22;4731;49.708;10.816;2023-07-02T14:40:48;25.20;99.90
9383;DHT22;4731;49.708;10.816;2023-07-02T14:43:16;25.10;99.90
9383;DHT22;4731;49.708;10.816;2023-07-02T14:45:45;25.00;99.90
9383;DHT22;4731;49.708;10.816;2023-07-02T14:48:14;25.00;99.90
9383;DHT22;4731;49.708;10.816;2023-07-02T14:50:45;25.00;99.90
9383;DHT22;4731;49.708;10.816;2023-07-02T14:53:12;24.80;99.90
9383;DHT22;4731;49.708;10.816;2023-07-02T14:55:39;24.80;99.90
9383;DHT22;4731;49.708;10.816;2023-07-02T14:58:07;24.40;99.90
9383;DHT22;4731;49.708;10.816;2023-07-02T15:00:41;24.30;99.90
9383;DHT22;4731;49.708;10.816;2023-07-02T15:03:11;24.60;99.90
9383;DHT22;4731;49.708;10.816;2023-07-02T15:05:41;24.80;99.90
9383;DHT22;4731;49.708;10.816;2023-07-02T15:08:09;24.90;99.90
9383;DHT22;4731;49.708;10.816;2023-07-02T15:10:38;24.70;99.90
9383;DHT22;4731;49.708;10.816;2023-07-02T15:13:06;24.60;99.90
9383;DHT22;4731;49.708;10.816;2023-07-02T15:15:34;24.80;99.90
9383;DHT22;4731;49.708;10.816;2023-07-02T15:18:01;24.80;99.90
9383;DHT22;4731;49.708;10.816;2023-07-02T15:20:28;24.70;99.90
9383;DHT22;4731;49.708;10.816;2023-07-02T15:22:57;24.60;99.90
9383;DHT22;4731;49.708;10.816;2023-07-02T15:25:23;24.80;99.90
9383;DHT22;4731;49.708;10.816;2023-07-02T15:27:51;24.80;99.90
9383;DHT22;4731;49.708;10.816;2023-07-02T15:30:18;24.90;99.90
9383;DHT22;4731;49.708;10.816;2023-07-02T15:32:45;24.90;99.90
9383;DHT22;4731;49.708;10.816;2023-07-02T15:35:12;24.90;99.90
9383;DHT22;4731;49.708;10.816;2023-07-02T15:37:39;24.70;99.90
9383;DHT22;4731;49.708;10.816;2023-07-02T15:40:09;24.80;99.90
9383;DHT22;4731;49.708;10.816;2023-07-02T15:42:36;24.60;99.90
9383;DHT22;4731;49.708;10.816;2023-07-02T15:45:04;24.30;99.90
9383;DHT22;4731;49.708;10.816;2023-07-02T15:47:32;24.00;99.90